createdAt,value
2022-09-07T00:03:48.323Z,20.44
2022-09-07T00:09:51.501Z,20.41
2022-09-07T00:15:53.834Z,20.36
2022-09-07T00:21:55.818Z,20.37
2022-09-07T00:27:57.781Z,20.33
2022-09-07T00:34:02.013Z,20.42
2022-09-07T00:40:05.578Z,20.54
2022-09-07T00:46:24.715Z,20.28
2022-09-07T00:52:29.235Z,20.36
2022-09-07T00:58:34.449Z,20.25
2022-09-07T01:04:37.437Z,20.02
2022-09-07T01:10:39.533Z,20.04
2022-09-07T01:17:25.063Z,20.12
2022-09-07T01:24:43.249Z,19.84
2022-09-07T01:30:59.469Z,20.01
2022-09-07T01:37:56.771Z,19.85
2022-09-07T01:44:27.152Z,19.98
2022-09-07T01:50:52.584Z,20.08
2022-09-07T01:57:01.943Z,20.20
2022-09-07T02:03:55.945Z,20.09
2022-09-07T02:10:09.555Z,20.14
2022-09-07T02:16:18.796Z,19.94
2022-09-07T02:22:30.036Z,19.86
2022-09-07T02:28:38.538Z,19.97
2022-09-07T02:34:40.536Z,19.94
2022-09-07T02:40:42.500Z,20.18
2022-09-07T02:47:24.007Z,19.89
2022-09-07T02:54:15.315Z,19.84
2022-09-07T03:00:26.810Z,19.67
2022-09-07T03:07:05.684Z,19.66
2022-09-07T03:13:08.030Z,19.55
2022-09-07T03:19:10.075Z,19.77
2022-09-07T03:25:12.304Z,19.85
2022-09-07T03:31:14.365Z,19.70
2022-09-07T03:37:16.433Z,19.60
2022-09-07T03:43:18.375Z,19.60
2022-09-07T03:49:20.497Z,19.90
2022-09-07T03:55:22.458Z,19.83
2022-09-07T04:01:25.976Z,19.82
2022-09-07T04:07:27.974Z,19.94
2022-09-07T04:13:31.856Z,20.10
2022-09-07T04:19:33.909Z,20.01
2022-09-07T04:25:35.899Z,20.27
2022-09-07T04:31:38.843Z,20.14
2022-09-07T04:37:41.043Z,20.13
2022-09-07T04:43:43.468Z,20.35
2022-09-07T04:49:45.448Z,20.14
2022-09-07T04:55:47.467Z,20.18
2022-09-07T05:01:49.428Z,20.25
2022-09-07T05:07:51.517Z,20.29
2022-09-07T05:13:55.537Z,20.20
2022-09-07T05:19:58.229Z,20.17
2022-09-07T05:26:00.389Z,20.46
2022-09-07T05:32:02.595Z,20.58
2022-09-07T05:38:04.566Z,20.66
2022-09-07T05:50:28.981Z,20.76
2022-09-07T05:56:33.469Z,20.91
2022-09-07T06:02:39.526Z,21.11
2022-09-07T06:08:51.200Z,21.39
2022-09-07T06:14:53.167Z,21.85
2022-09-07T06:20:55.129Z,21.65
2022-09-07T06:26:57.068Z,21.26
2022-09-07T06:32:59.067Z,20.68
2022-09-07T06:39:04.159Z,20.42
2022-09-07T06:45:06.985Z,20.21
2022-09-07T06:51:18.973Z,20.06
2022-09-07T06:57:20.944Z,20.27
2022-09-07T07:03:23.136Z,20.21
2022-09-07T07:09:25.162Z,20.37
2022-09-07T07:15:31.051Z,20.75
2022-09-07T07:21:48.559Z,21.08
2022-09-07T07:27:55.077Z,21.86
2022-09-07T07:33:57.236Z,21.85
2022-09-07T07:40:16.973Z,22.04
2022-09-07T07:46:21.087Z,22.41
2022-09-07T07:58:48.027Z,23.40
2022-09-07T08:04:50.587Z,23.99
2022-09-07T08:10:52.992Z,24.32
2022-09-07T08:16:54.901Z,24.91
2022-09-07T08:22:56.803Z,25.53
2022-09-07T08:28:58.761Z,25.58
2022-09-07T08:35:01.306Z,26.11
2022-09-07T08:41:37.168Z,26.77
2022-09-07T08:47:47.019Z,27.11
2022-09-07T08:53:49.813Z,28.18
2022-09-07T09:00:12.006Z,28.69
2022-09-07T09:06:41.502Z,28.65
2022-09-07T09:13:15.715Z,29.43
2022-09-07T09:19:45.400Z,30.00
2022-09-07T09:25:53.508Z,29.80
2022-09-07T09:31:55.689Z,29.63
2022-09-07T09:38:00.274Z,28.82
2022-09-07T09:44:06.145Z,29.90
2022-09-07T09:56:54.158Z,32.96
2022-09-07T10:09:49.028Z,32.54
2022-09-07T10:15:57.131Z,33.04
2022-09-07T10:22:25.163Z,34.32
2022-09-07T10:29:06.444Z,33.54
2022-09-07T10:35:31.437Z,32.15
2022-09-07T10:42:20.521Z,34.06
2022-09-07T10:48:55.392Z,34.87
2022-09-07T10:55:20.504Z,36.85
2022-09-07T11:01:34.383Z,39.46
2022-09-07T11:08:07.023Z,34.86
2022-09-07T11:14:21.954Z,36.28
2022-09-07T11:20:55.351Z,34.35
2022-09-07T11:27:16.010Z,33.66
2022-09-07T11:40:31.223Z,36.27
2022-09-07T11:46:48.041Z,35.57
2022-09-07T11:53:20.410Z,35.65
2022-09-07T11:59:45.146Z,37.25
2022-09-07T12:06:22.546Z,36.36
2022-09-07T12:12:58.613Z,36.55
2022-09-07T12:19:19.867Z,35.41
2022-09-07T12:25:21.922Z,36.65
2022-09-07T12:31:59.364Z,36.84
2022-09-07T12:38:18.648Z,37.14
2022-09-07T12:44:28.555Z,36.16
2022-09-07T12:50:43.548Z,36.63
2022-09-07T13:10:03.762Z,37.27
2022-09-07T13:16:05.585Z,34.43
2022-09-07T13:22:30.339Z,32.41
2022-09-07T13:28:40.254Z,31.75
2022-09-07T13:35:19.204Z,30.31
2022-09-07T13:41:42.308Z,29.01
2022-09-07T13:47:51.854Z,28.15
2022-09-07T13:53:56.721Z,27.42
2022-09-07T13:59:59.365Z,27.72
2022-09-07T14:06:25.244Z,28.63
2022-09-07T14:12:31.110Z,29.67
2022-09-07T14:18:33.557Z,29.41
2022-09-07T14:25:01.531Z,31.13
2022-09-07T14:31:05.781Z,33.37
2022-09-07T14:37:13.237Z,34.30
2022-09-07T14:43:50.507Z,32.32
2022-09-07T14:49:55.924Z,30.57
2022-09-07T14:56:11.078Z,32.51
2022-09-07T15:02:19.206Z,31.57
2022-09-07T15:08:45.921Z,32.68
2022-09-07T15:14:48.338Z,31.08
2022-09-07T15:20:51.103Z,30.02
2022-09-07T15:27:08.523Z,29.75
2022-09-07T15:33:11.494Z,28.95
2022-09-07T15:39:28.065Z,28.65
2022-09-07T15:45:30.037Z,29.90
2022-09-07T15:58:05.490Z,31.57
2022-09-07T16:04:14.969Z,30.52
2022-09-07T16:10:17.568Z,30.14
2022-09-07T16:16:19.722Z,29.41
2022-09-07T16:28:47.725Z,28.31
2022-09-07T16:34:49.693Z,27.75
2022-09-07T16:40:51.726Z,27.34
2022-09-07T16:46:53.663Z,26.84
2022-09-07T16:52:56.282Z,26.52
2022-09-07T16:59:03.321Z,26.03
2022-09-07T17:05:05.824Z,25.66
2022-09-07T17:11:18.320Z,25.54
2022-09-07T17:17:22.015Z,24.95
2022-09-07T17:23:24.727Z,24.61
2022-09-07T17:29:27.502Z,24.39
2022-09-07T17:35:30.740Z,24.23
2022-09-07T17:41:36.158Z,23.89
2022-09-07T17:47:38.201Z,23.83
2022-09-07T17:53:45.313Z,23.60
2022-09-07T18:06:10.915Z,23.23
2022-09-07T18:12:12.835Z,23.23
2022-09-07T18:18:16.602Z,23.10
2022-09-07T18:24:23.182Z,22.96
2022-09-07T18:30:25.973Z,23.00
2022-09-07T18:36:29.099Z,23.08
2022-09-07T18:42:31.149Z,22.84
2022-09-07T18:48:34.534Z,22.78
2022-09-07T18:54:36.448Z,21.94
2022-09-07T19:00:45.023Z,21.55
2022-09-07T19:06:47.118Z,21.35
2022-09-07T19:12:49.004Z,21.31
2022-09-07T19:18:59.725Z,21.55
2022-09-07T19:25:01.669Z,20.94
2022-09-07T19:31:07.352Z,20.92
2022-09-07T19:37:12.501Z,21.06
2022-09-07T19:43:14.614Z,20.89
2022-09-07T19:49:17.005Z,20.94
2022-09-07T19:55:18.960Z,21.02
2022-09-07T20:01:25.408Z,20.71
2022-09-07T20:07:27.542Z,20.74
2022-09-07T20:13:31.030Z,20.46
2022-09-07T20:19:33.044Z,20.59
2022-09-07T20:25:35.000Z,20.69
2022-09-07T20:31:36.992Z,20.55
2022-09-07T20:37:38.976Z,20.46
2022-09-07T20:43:41.995Z,20.74
2022-09-07T20:49:43.890Z,20.54
2022-09-07T20:55:45.779Z,20.56
2022-09-07T21:01:47.865Z,20.60
2022-09-07T21:07:49.779Z,20.37
2022-09-07T21:14:06.923Z,20.18
2022-09-07T21:20:09.560Z,20.09
2022-09-07T21:26:11.873Z,20.09
2022-09-07T21:32:13.761Z,19.87
2022-09-07T21:38:15.635Z,19.72
2022-09-07T21:44:17.684Z,19.59
2022-09-07T21:50:19.680Z,19.42
2022-09-07T21:56:21.908Z,19.33
2022-09-07T22:02:23.942Z,19.17
2022-09-07T22:08:25.949Z,19.01
2022-09-07T22:14:27.947Z,18.85
2022-09-07T22:20:29.840Z,18.78
2022-09-07T22:26:39.285Z,18.55
2022-09-07T22:32:49.550Z,18.63
2022-09-07T22:38:55.646Z,18.52
2022-09-07T22:44:58.044Z,18.39
2022-09-07T22:51:02.816Z,18.34
2022-09-07T22:57:04.867Z,18.13
2022-09-07T23:03:06.821Z,18.07
2022-09-07T23:09:16.551Z,17.92
2022-09-07T23:15:18.615Z,17.79
2022-09-07T23:21:21.079Z,17.78
2022-09-07T23:27:23.027Z,17.82
2022-09-07T23:33:26.221Z,17.80
2022-09-07T23:39:28.122Z,17.87
2022-09-07T23:45:30.131Z,17.82
2022-09-07T23:51:32.065Z,17.99
2022-09-07T23:57:33.999Z,17.80
